createdAt,value
2022-10-22T02:56:02.096Z,99.921
2022-10-22T03:00:01.672Z,99.921
2022-10-22T03:07:01.556Z,99.939
2022-10-22T03:14:01.575Z,99.939
2022-10-22T03:21:02.177Z,99.98
2022-10-22T03:28:02.347Z,99.98
2022-10-22T03:35:02.050Z,99.791
2022-10-22T03:42:01.631Z,99.791
2022-10-22T03:49:01.593Z,99.546
2022-10-22T03:56:02.046Z,99.546
2022-10-22T04:00:01.635Z,99.664
2022-10-22T04:07:02.250Z,99.664
2022-10-22T04:14:01.616Z,99.759
2022-10-22T04:21:02.300Z,99.759
2022-10-22T04:28:01.366Z,99.654
2022-10-22T04:35:01.935Z,99.45
2022-10-22T04:42:01.495Z,99.45
2022-10-22T04:49:02.045Z,99.286
2022-10-22T04:56:01.946Z,99.286
2022-10-22T05:00:02.635Z,99.286
2022-10-22T05:07:01.793Z,99.39
2022-10-22T05:14:01.947Z,99.033
2022-10-22T05:21:02.331Z,99.033
2022-10-22T05:28:01.543Z,99.04
2022-10-22T05:35:01.979Z,99.04
2022-10-22T05:42:01.389Z,99.097
2022-10-22T05:49:01.723Z,99.097
2022-10-22T05:56:01.833Z,99.184
2022-10-22T06:00:02.538Z,99.184
2022-10-22T06:07:02.059Z,99.315
2022-10-22T06:14:02.228Z,99.315
2022-10-22T06:21:02.273Z,99.531
2022-10-22T06:28:02.158Z,99.531
2022-10-22T06:35:02.012Z,99.835
2022-10-22T06:42:02.106Z,99.835
2022-10-22T06:49:01.928Z,99.918
2022-10-22T06:56:01.519Z,99.918
2022-10-22T07:00:02.186Z,100
2022-10-22T07:07:02.214Z,100
2022-10-22T07:14:02.182Z,100
2022-10-22T07:21:01.354Z,100
2022-10-22T07:28:02.318Z,100
2022-10-22T07:35:01.579Z,100
2022-10-22T07:42:01.913Z,100
2022-10-22T07:49:01.784Z,100
2022-10-22T07:56:01.710Z,100
2022-10-22T08:00:02.424Z,100
2022-10-22T08:07:01.824Z,100
2022-10-22T08:14:02.191Z,100
2022-10-22T08:21:01.593Z,100
2022-10-22T08:28:02.099Z,100
2022-10-22T08:35:02.421Z,100
2022-10-22T08:42:01.582Z,100
2022-10-22T08:49:02.292Z,100
2022-10-22T08:56:01.733Z,99.522
2022-10-22T09:00:02.390Z,99.522
2022-10-22T09:07:01.655Z,99.182
2022-10-22T09:14:02.141Z,99.182
2022-10-22T09:21:01.819Z,98.796
2022-10-22T09:28:01.500Z,98.796
2022-10-22T09:35:02.214Z,98.078
2022-10-22T09:42:01.403Z,98.078
2022-10-22T09:49:02.337Z,97.092
2022-10-22T09:56:02.255Z,97.092
2022-10-22T10:00:01.926Z,96.494
2022-10-22T10:07:01.418Z,96.494
2022-10-22T10:14:01.631Z,95.907
2022-10-22T10:21:02.195Z,95.907
2022-10-22T10:28:01.754Z,95.391
2022-10-22T10:35:01.935Z,94.149
2022-10-22T10:42:01.551Z,94.149
2022-10-22T10:49:01.738Z,93.511
2022-10-22T10:56:01.706Z,93.511
2022-10-22T11:00:02.374Z,93.511
2022-10-22T11:07:11.017Z,92.797
2022-10-22T11:14:01.481Z,92.797
2022-10-22T11:21:01.785Z,92.797
2022-10-22T11:28:07.902Z,92.797
2022-10-22T11:56:01.388Z,90.407
2022-10-22T12:00:01.939Z,90.407
2022-10-22T12:07:02.238Z,89.875
2022-10-22T12:14:01.842Z,89.875
2022-10-22T12:21:02.329Z,89.875
2022-10-22T12:28:02.023Z,89.875
2022-10-22T12:35:02.574Z,87.744
2022-10-22T12:42:01.969Z,87.744
2022-10-22T12:49:02.228Z,87.375
2022-10-22T12:56:02.176Z,87.375
2022-10-22T13:00:01.943Z,87.281
2022-10-22T13:07:01.579Z,87.281
2022-10-22T13:14:02.150Z,86.914
2022-10-22T13:21:01.377Z,86.914
2022-10-22T13:28:01.546Z,86.374
2022-10-22T13:35:01.753Z,85.98
2022-10-22T13:42:02.290Z,85.98
2022-10-22T13:49:02.082Z,85.204
2022-10-22T13:56:01.792Z,85.204
2022-10-22T14:00:02.445Z,85.204
2022-10-22T14:07:03.723Z,82.829
2022-10-22T14:14:01.914Z,83.573
2022-10-22T14:21:02.277Z,83.573
2022-10-22T14:28:02.112Z,84.08
2022-10-22T14:35:01.841Z,84.08
2022-10-22T14:42:02.005Z,84.166
2022-10-22T14:49:02.313Z,84.166
2022-10-22T14:56:01.576Z,83.952
2022-10-22T15:00:02.169Z,83.952
2022-10-22T15:07:02.089Z,83.99
2022-10-22T15:14:01.815Z,83.99
2022-10-22T15:21:01.635Z,84.249
2022-10-22T15:28:09.195Z,84.249
2022-10-22T15:35:02.325Z,84.759
2022-10-22T15:42:01.380Z,84.759
2022-10-22T15:49:02.231Z,85.205
2022-10-22T15:56:02.162Z,85.205
2022-10-22T16:00:01.733Z,86.541
2022-10-22T16:07:02.144Z,86.541
2022-10-22T16:14:01.534Z,87.202
2022-10-22T16:21:02.130Z,87.202
2022-10-22T16:28:01.655Z,87.846
2022-10-22T16:35:01.984Z,88.265
2022-10-22T16:42:02.038Z,88.265
2022-10-22T16:49:01.449Z,87.977
2022-10-22T16:56:02.026Z,87.977
2022-10-22T17:00:01.561Z,87.977
2022-10-22T17:07:02.274Z,88.007
2022-10-22T17:14:01.473Z,88.338
2022-10-22T17:21:02.210Z,88.338
2022-10-22T17:28:02.337Z,88.639
2022-10-22T17:35:02.252Z,88.639
2022-10-22T17:42:01.370Z,88.811
2022-10-22T17:49:01.428Z,88.811
2022-10-22T17:56:02.331Z,89.001
2022-10-22T18:00:01.964Z,89.001
2022-10-22T18:07:01.641Z,89.156
2022-10-22T18:14:01.933Z,89.156
2022-10-22T18:21:01.455Z,89.382
2022-10-22T18:28:02.204Z,89.382
2022-10-22T18:35:02.108Z,89.539
2022-10-22T18:42:01.828Z,89.539
2022-10-22T18:49:01.722Z,89.729
2022-10-22T18:56:01.763Z,89.609
2022-10-22T19:00:02.567Z,89.609
2022-10-22T19:07:01.522Z,89.609
2022-10-22T19:14:02.158Z,89.503
2022-10-22T19:21:02.106Z,89.503
2022-10-22T19:28:01.675Z,89.423
2022-10-22T19:35:02.068Z,89.422
2022-10-22T19:42:01.816Z,89.422
2022-10-22T19:49:01.570Z,89.533
2022-10-22T19:56:02.268Z,89.533
2022-10-22T20:00:02.122Z,89.533
2022-10-22T20:07:02.330Z,89.715
2022-10-22T20:14:02.255Z,89.786
2022-10-22T20:21:01.816Z,89.786
2022-10-22T20:28:02.095Z,89.971
2022-10-22T20:35:02.563Z,89.971
2022-10-22T20:42:02.006Z,90.025
2022-10-22T20:49:02.158Z,90.025
2022-10-22T20:56:01.906Z,90.173
2022-10-22T21:00:02.567Z,90.173
2022-10-22T21:07:01.950Z,90.308
2022-10-22T21:14:01.765Z,90.308
2022-10-22T21:21:01.990Z,90.457
2022-10-22T21:28:01.399Z,90.457
2022-10-22T21:35:02.145Z,90.575
2022-10-22T21:42:01.966Z,90.575
2022-10-22T21:49:02.239Z,90.717
2022-10-22T21:56:01.565Z,91.032
2022-10-22T22:00:02.190Z,91.032
2022-10-22T22:07:01.801Z,91.032
2022-10-22T22:14:01.623Z,91.32
2022-10-22T22:21:01.476Z,91.32
2022-10-22T22:28:01.387Z,91.496
2022-10-22T22:35:02.312Z,91.573
2022-10-22T22:42:01.780Z,91.573
2022-10-22T22:49:01.577Z,91.534
2022-10-22T22:56:02.094Z,91.534
2022-10-22T23:00:01.676Z,91.534
2022-10-22T23:07:02.292Z,91.612
2022-10-22T23:14:01.661Z,91.84
2022-10-22T23:21:01.759Z,91.84
2022-10-22T23:28:01.549Z,91.938
2022-10-22T23:35:02.415Z,91.938
2022-10-22T23:42:01.565Z,92.038
2022-10-22T23:49:01.843Z,92.038
2022-10-22T23:56:01.821Z,91.796
